createdAt,value
2018-02-24T00:00:42.125Z,2.30
2018-02-24T00:03:09.636Z,2.40
2018-02-24T00:05:37.154Z,2.30
2018-02-24T00:08:04.697Z,2.30
2018-02-24T00:10:32.245Z,2.30
2018-02-24T00:13:00.511Z,2.20
2018-02-24T00:15:28.809Z,2.20
2018-02-24T00:17:56.321Z,2.20
2018-02-24T00:20:24.616Z,2.20
2018-02-24T00:22:52.896Z,2.20
2018-02-24T00:25:21.209Z,2.20
2018-02-24T00:27:48.710Z,2.20
2018-02-24T00:30:16.207Z,2.20
2018-02-24T00:32:43.719Z,2.20
2018-02-24T00:35:11.232Z,2.20
2018-02-24T00:37:38.757Z,2.10
2018-02-24T00:40:07.049Z,2.10
2018-02-24T00:42:34.578Z,2.10
2018-02-24T00:45:02.084Z,2.00
2018-02-24T00:47:29.612Z,2.00
2018-02-24T00:49:57.925Z,2.00
2018-02-24T00:52:25.425Z,2.00
2018-02-24T00:54:53.743Z,2.10
2018-02-24T00:57:21.296Z,2.00
2018-02-24T00:59:48.833Z,1.90
2018-02-24T01:02:17.106Z,1.90
2018-02-24T01:04:45.427Z,1.90
2018-02-24T01:07:12.927Z,1.90
2018-02-24T01:09:40.465Z,2.00
2018-02-24T01:12:07.976Z,2.00
2018-02-24T01:14:35.492Z,2.00
2018-02-24T01:17:04.607Z,2.00
2018-02-24T01:19:32.922Z,1.90
2018-02-24T01:22:00.459Z,1.90
2018-02-24T01:24:27.958Z,1.90
2018-02-24T01:26:55.455Z,2.00
2018-02-24T01:29:23.769Z,1.90
2018-02-24T01:31:51.272Z,1.90
2018-02-24T01:34:18.824Z,2.00
2018-02-24T01:36:46.323Z,2.00
2018-02-24T01:39:13.865Z,2.10
2018-02-24T01:41:42.137Z,2.10
2018-02-24T01:44:10.448Z,2.10
2018-02-24T01:46:37.944Z,2.10
2018-02-24T01:49:05.439Z,2.10
2018-02-24T01:51:33.738Z,2.10
2018-02-24T01:54:01.237Z,2.10
2018-02-24T01:56:28.748Z,2.10
2018-02-24T01:58:56.252Z,2.10
2018-02-24T02:01:23.792Z,2.10
2018-02-24T02:03:51.292Z,2.20
2018-02-24T02:06:19.596Z,2.20
2018-02-24T02:08:47.091Z,2.20
2018-02-24T02:11:14.595Z,2.20
2018-02-24T02:13:42.887Z,2.20
2018-02-24T02:16:10.409Z,2.20
2018-02-24T02:18:37.945Z,2.20
2018-02-24T02:21:05.442Z,2.20
2018-02-24T02:23:33.771Z,2.30
2018-02-24T02:26:01.282Z,2.20
2018-02-24T02:28:28.828Z,2.20
2018-02-24T02:30:57.115Z,2.20
2018-02-24T02:33:24.619Z,2.10
2018-02-24T02:35:52.169Z,2.10
2018-02-24T02:38:19.665Z,2.00
2018-02-24T02:40:47.188Z,2.00
2018-02-24T02:43:14.688Z,2.00
2018-02-24T02:45:43.301Z,1.90
2018-02-24T02:48:10.787Z,1.90
2018-02-24T02:50:38.287Z,1.80
2018-02-24T02:53:06.600Z,1.90
2018-02-24T02:55:34.107Z,1.80
2018-02-24T02:58:01.650Z,1.80
2018-02-24T03:00:30.676Z,1.80
2018-02-24T03:02:58.933Z,1.70
2018-02-24T03:05:26.447Z,1.70
2018-02-24T03:07:53.950Z,1.70
2018-02-24T03:10:22.240Z,1.50
2018-02-24T03:12:50.501Z,1.50
2018-02-24T03:15:18.033Z,1.50
2018-02-24T03:17:45.533Z,1.50
2018-02-24T03:20:13.825Z,1.30
2018-02-24T03:22:41.321Z,1.30
2018-02-24T03:25:08.841Z,1.30
2018-02-24T03:27:36.336Z,1.20
2018-02-24T03:30:03.856Z,1.20
2018-02-24T03:32:31.379Z,1.10
2018-02-24T03:34:59.692Z,1.20
2018-02-24T03:37:27.187Z,1.10
2018-02-24T03:39:54.713Z,1.20
2018-02-24T03:42:22.280Z,1.20
2018-02-24T03:44:49.788Z,1.10
2018-02-24T03:47:18.052Z,1.10
2018-02-24T03:49:45.588Z,1.10
2018-02-24T03:52:13.088Z,1.00
2018-02-24T03:54:41.395Z,1.00
2018-02-24T03:57:08.884Z,1.00
2018-02-24T03:59:36.426Z,1.00
2018-02-24T04:02:03.935Z,0.90
2018-02-24T04:04:31.474Z,0.90
2018-02-24T04:06:58.991Z,0.90
2018-02-24T04:09:26.491Z,0.80
2018-02-24T04:11:54.006Z,0.70
2018-02-24T04:14:21.500Z,0.50
2018-02-24T04:16:49.024Z,0.40
2018-02-24T04:19:16.524Z,0.30
2018-02-24T04:21:44.039Z,0.30
2018-02-24T04:24:11.537Z,0.30
2018-02-24T04:26:39.823Z,0.40
2018-02-24T04:29:08.093Z,0.40
2018-02-24T04:31:36.399Z,0.40
2018-02-24T04:34:03.912Z,0.40
2018-02-24T04:36:31.412Z,0.30
2018-02-24T04:38:58.940Z,0.30
2018-02-24T04:41:27.233Z,0.40
2018-02-24T04:43:54.771Z,0.30
2018-02-24T04:46:23.044Z,0.40
2018-02-24T04:48:52.086Z,0.40
2018-02-24T04:51:19.616Z,0.40
2018-02-24T04:53:47.157Z,0.40
2018-02-24T04:56:15.416Z,0.50
2018-02-24T04:58:42.932Z,0.40
2018-02-24T05:01:10.455Z,0.40
2018-02-24T05:03:38.724Z,0.50
2018-02-24T05:06:07.018Z,0.40
2018-02-24T05:08:34.572Z,0.40
2018-02-24T05:11:02.109Z,0.40
2018-02-24T05:13:30.385Z,0.30
2018-02-24T05:15:57.879Z,0.30
2018-02-24T05:18:25.410Z,0.30
2018-02-24T05:20:53.709Z,0.30
2018-02-24T05:23:21.216Z,0.30
2018-02-24T05:25:48.834Z,0.40
2018-02-24T05:28:16.339Z,0.30
2018-02-24T05:30:43.847Z,0.20
2018-02-24T05:33:11.368Z,0.20
2018-02-24T05:35:39.650Z,0.20
2018-02-24T05:38:07.964Z,0.20
2018-02-24T05:40:35.474Z,0.20
2018-02-24T05:43:03.735Z,0.20
2018-02-24T05:45:31.265Z,0.20
2018-02-24T05:47:58.761Z,0.10
2018-02-24T05:50:27.051Z,0.10
2018-02-24T05:52:55.327Z,0.00
2018-02-24T05:55:23.640Z,0.00
2018-02-24T05:57:51.135Z,0.00
2018-02-24T06:00:20.196Z,0.00
2018-02-24T06:02:47.716Z,0.00
2018-02-24T06:05:15.984Z,0.00
2018-02-24T06:07:44.280Z,-0.10
2018-02-24T06:10:11.783Z,-0.10
2018-02-24T06:12:39.316Z,-0.20
2018-02-24T06:15:06.825Z,-0.20
2018-02-24T06:17:35.121Z,-0.10
2018-02-24T06:20:02.636Z,-0.10
2018-02-24T06:22:30.167Z,-0.10
2018-02-24T06:24:57.696Z,-0.10
2018-02-24T06:27:25.220Z,-0.10
2018-02-24T06:29:52.775Z,-0.10
2018-02-24T06:32:20.294Z,-0.10
2018-02-24T06:34:47.824Z,-0.10
2018-02-24T06:37:15.344Z,-0.10
2018-02-24T06:39:42.869Z,-0.10
2018-02-24T06:42:10.393Z,-0.10
2018-02-24T06:44:37.924Z,-0.10
2018-02-24T06:47:05.459Z,-0.10
2018-02-24T06:49:32.979Z,-0.10
2018-02-24T06:52:00.500Z,-0.10
2018-02-24T06:54:28.013Z,-0.20
2018-02-24T06:56:55.651Z,-0.20
2018-02-24T06:59:23.191Z,-0.20
2018-02-24T07:01:51.488Z,0.00
2018-02-24T07:04:19.016Z,-0.10
2018-02-24T07:06:47.296Z,-0.20
2018-02-24T07:09:15.606Z,-0.20
2018-02-24T07:11:43.125Z,-0.20
2018-02-24T07:14:11.420Z,-0.20
2018-02-24T07:16:38.952Z,-0.20
2018-02-24T07:19:06.461Z,-0.10
2018-02-24T07:21:34.010Z,-0.10
2018-02-24T07:24:01.525Z,-0.10
2018-02-24T07:26:29.829Z,-0.10
2018-02-24T07:28:57.332Z,-0.10
2018-02-24T07:31:24.848Z,-0.10
2018-02-24T07:33:52.391Z,0.00
2018-02-24T07:36:20.669Z,0.10
2018-02-24T07:38:48.976Z,0.10
2018-02-24T07:41:16.476Z,0.10
2018-02-24T07:43:45.492Z,0.10
2018-02-24T07:46:13.820Z,0.10
2018-02-24T07:48:41.325Z,0.10
2018-02-24T07:51:09.672Z,0.30
2018-02-24T07:53:37.173Z,0.30
2018-02-24T07:56:04.699Z,0.30
2018-02-24T07:58:32.210Z,0.40
2018-02-24T08:00:59.732Z,0.50
2018-02-24T08:03:28.023Z,0.60
2018-02-24T08:05:55.552Z,0.50
2018-02-24T08:08:23.856Z,0.50
2018-02-24T08:10:52.136Z,0.50
2018-02-24T08:13:19.672Z,0.50
2018-02-24T08:15:47.955Z,0.70
2018-02-24T08:18:16.257Z,0.70
2018-02-24T08:20:43.772Z,0.70
2018-02-24T08:23:11.315Z,0.80
2018-02-24T08:25:38.826Z,0.80
2018-02-24T08:28:06.367Z,0.70
2018-02-24T08:30:33.931Z,0.70
2018-02-24T08:33:01.436Z,0.70
2018-02-24T08:35:28.971Z,0.80
2018-02-24T08:37:56.477Z,0.90
2018-02-24T08:40:24.784Z,1.00
2018-02-24T08:42:52.300Z,1.00
2018-02-24T08:45:19.889Z,1.10
2018-02-24T08:47:48.203Z,1.20
2018-02-24T08:50:15.700Z,1.20
2018-02-24T08:52:43.228Z,1.30
2018-02-24T08:55:10.754Z,1.40
2018-02-24T08:57:38.299Z,1.50
2018-02-24T09:00:05.806Z,1.50
2018-02-24T09:02:33.315Z,1.60
2018-02-24T09:05:00.872Z,1.60
2018-02-24T09:07:29.139Z,1.80
2018-02-24T09:09:56.701Z,1.80
2018-02-24T09:12:24.988Z,2.00
2018-02-24T09:14:52.536Z,2.00
2018-02-24T09:17:20.838Z,2.10
2018-02-24T09:19:48.388Z,2.00
2018-02-24T09:22:15.956Z,1.90
2018-02-24T09:24:43.460Z,2.00
2018-02-24T09:27:10.987Z,2.10
2018-02-24T09:29:38.507Z,2.40
2018-02-24T09:32:06.048Z,2.50
2018-02-24T09:34:34.896Z,3.00
2018-02-24T09:37:02.414Z,3.00
2018-02-24T09:39:29.977Z,3.20
2018-02-24T09:41:57.517Z,3.20
2018-02-24T09:44:25.785Z,3.30
2018-02-24T09:46:54.136Z,3.30
2018-02-24T09:49:21.637Z,3.30
2018-02-24T09:51:49.196Z,3.40
2018-02-24T09:54:16.698Z,3.50
2018-02-24T09:56:44.200Z,3.60
2018-02-24T09:59:12.516Z,3.80
2018-02-24T10:01:40.039Z,3.80
2018-02-24T10:04:08.334Z,4.00
2018-02-24T10:06:35.856Z,4.00
2018-02-24T10:09:04.129Z,4.30
2018-02-24T10:11:31.681Z,4.30
2018-02-24T10:13:59.944Z,4.40
2018-02-24T10:16:27.472Z,4.30
2018-02-24T10:18:55.078Z,4.30
2018-02-24T10:21:22.557Z,4.30
2018-02-24T10:23:50.824Z,4.40
2018-02-24T10:26:19.168Z,4.50
2018-02-24T10:28:46.656Z,4.50
2018-02-24T10:31:14.961Z,4.50
2018-02-24T10:33:42.474Z,4.50
2018-02-24T10:36:10.007Z,4.60
2018-02-24T10:38:37.511Z,4.60
2018-02-24T10:41:05.823Z,5.20
2018-02-24T10:43:33.352Z,5.20
2018-02-24T10:46:01.643Z,5.60
2018-02-24T10:48:29.223Z,5.50
2018-02-24T10:50:56.704Z,5.80
2018-02-24T10:53:24.254Z,5.80
2018-02-24T10:55:51.758Z,5.80
2018-02-24T10:58:19.572Z,5.90
2018-02-24T11:00:47.097Z,5.90
2018-02-24T11:03:14.607Z,6.20
2018-02-24T11:05:42.125Z,6.20
2018-02-24T11:08:09.684Z,6.30
2018-02-24T11:10:37.444Z,6.40
2018-02-24T11:13:04.956Z,6.70
2018-02-24T11:15:33.237Z,6.90
2018-02-24T11:18:01.533Z,6.80
2018-02-24T11:20:29.050Z,6.80
2018-02-24T11:22:56.584Z,6.70
2018-02-24T11:25:24.102Z,6.70
2018-02-24T11:27:51.661Z,6.70
2018-02-24T11:30:19.177Z,6.90
2018-02-24T11:32:46.719Z,7.10
2018-02-24T11:35:14.297Z,7.50
2018-02-24T11:37:41.793Z,7.60
2018-02-24T11:40:09.309Z,7.80
2018-02-24T11:42:36.846Z,7.90
2018-02-24T11:45:04.381Z,8.00
2018-02-24T11:47:31.904Z,8.20
2018-02-24T11:50:00.196Z,8.30
2018-02-24T11:52:27.707Z,8.40
2018-02-24T11:54:55.249Z,8.30
2018-02-24T11:57:22.772Z,8.50
2018-02-24T11:59:50.337Z,8.80
2018-02-24T12:02:18.595Z,9.10
2018-02-24T12:04:46.887Z,9.10
2018-02-24T12:07:14.447Z,9.10
2018-02-24T12:09:42.019Z,9.20
2018-02-24T12:12:09.573Z,9.50
2018-02-24T12:14:37.121Z,9.30
2018-02-24T12:17:04.707Z,9.20
2018-02-24T12:19:32.253Z,9.30
2018-02-24T12:21:59.854Z,9.20
2018-02-24T12:24:27.368Z,9.40
2018-02-24T12:26:54.919Z,9.70
2018-02-24T12:29:22.444Z,10.00
2018-02-24T12:31:50.743Z,10.30
2018-02-24T12:34:18.258Z,10.30
2018-02-24T12:36:45.821Z,10.30
2018-02-24T12:39:13.339Z,10.40
2018-02-24T12:41:40.853Z,10.60
2018-02-24T12:44:09.188Z,10.50
2018-02-24T12:46:36.729Z,10.50
2018-02-24T12:49:04.264Z,10.60
2018-02-24T12:51:31.792Z,10.50
2018-02-24T12:53:59.355Z,10.50
2018-02-24T12:56:27.635Z,10.70
2018-02-24T12:58:55.927Z,10.70
2018-02-24T13:01:24.031Z,10.70
2018-02-24T13:03:51.584Z,10.50
2018-02-24T13:06:19.140Z,10.40
2018-02-24T13:08:46.694Z,10.50
2018-02-24T13:11:14.978Z,10.30
2018-02-24T13:13:42.507Z,10.20
2018-02-24T13:16:10.032Z,10.10
2018-02-24T13:18:39.072Z,10.90
2018-02-24T13:21:06.609Z,10.90
2018-02-24T13:23:34.910Z,10.90
2018-02-24T13:26:02.444Z,10.80
2018-02-24T13:28:29.997Z,10.90
2018-02-24T13:30:58.272Z,11.70
2018-02-24T13:33:26.589Z,12.20
2018-02-24T13:35:54.101Z,12.10
2018-02-24T13:38:21.703Z,12.40
2018-02-24T13:40:49.264Z,12.70
2018-02-24T13:43:16.792Z,12.90
2018-02-24T13:45:44.573Z,13.20
2018-02-24T13:48:12.109Z,13.50
2018-02-24T13:50:40.408Z,14.10
2018-02-24T13:53:07.916Z,14.00
2018-02-24T13:55:35.454Z,14.50
2018-02-24T13:58:02.963Z,14.90
2018-02-24T14:00:30.475Z,15.40
2018-02-24T14:02:58.014Z,15.50
2018-02-24T14:05:25.538Z,15.20
2018-02-24T14:07:53.063Z,15.30
2018-02-24T14:10:20.620Z,15.30
2018-02-24T14:12:48.124Z,14.80
2018-02-24T14:15:15.653Z,14.50
2018-02-24T14:17:43.946Z,14.10
2018-02-24T14:20:11.468Z,14.00
2018-02-24T14:22:38.980Z,13.70
2018-02-24T14:25:06.518Z,13.60
2018-02-24T14:27:34.022Z,13.30
2018-02-24T14:30:01.570Z,13.00
2018-02-24T14:32:29.095Z,12.80
2018-02-24T14:34:56.629Z,12.60
2018-02-24T14:37:24.909Z,12.20
2018-02-24T14:39:53.196Z,11.90
2018-02-24T14:42:21.504Z,11.40
2018-02-24T14:44:49.030Z,11.30
2018-02-24T14:47:16.563Z,10.70
2018-02-24T14:49:44.833Z,10.30
2018-02-24T14:52:12.380Z,10.20
2018-02-24T14:54:39.897Z,10.20
2018-02-24T14:57:07.456Z,10.10
2018-02-24T14:59:35.004Z,9.80
2018-02-24T15:02:02.507Z,9.50
2018-02-24T15:04:30.057Z,8.90
2018-02-24T15:06:57.588Z,8.50
2018-02-24T15:09:25.131Z,8.40
2018-02-24T15:11:52.642Z,8.00
2018-02-24T15:14:20.161Z,7.90
2018-02-24T15:16:47.700Z,7.80
2018-02-24T15:19:15.237Z,7.80
2018-02-24T15:21:43.523Z,7.40
2018-02-24T15:24:11.843Z,7.30
2018-02-24T15:26:40.328Z,7.30
2018-02-24T15:29:08.838Z,7.30
2018-02-24T15:31:37.012Z,7.30
2018-02-24T15:34:04.513Z,7.20
2018-02-24T15:36:32.082Z,7.10
2018-02-24T15:38:59.608Z,6.90
2018-02-24T15:41:27.228Z,7.00
2018-02-24T15:43:54.736Z,7.00
2018-02-24T15:46:22.241Z,7.00
2018-02-24T15:48:49.769Z,7.00
2018-02-24T15:51:17.312Z,7.00
2018-02-24T15:53:44.831Z,6.80
2018-02-24T15:56:12.375Z,6.70
2018-02-24T15:58:39.923Z,6.70
2018-02-24T16:01:07.486Z,6.50
2018-02-24T16:03:34.996Z,6.30
2018-02-24T16:06:03.285Z,6.10
2018-02-24T16:08:30.830Z,6.10
2018-02-24T16:10:58.336Z,6.10
2018-02-24T16:13:25.868Z,6.10
2018-02-24T16:15:53.384Z,6.00
2018-02-24T16:18:21.680Z,6.00
2018-02-24T16:20:49.210Z,5.90
2018-02-24T16:23:16.808Z,5.90
2018-02-24T16:25:44.338Z,5.80
2018-02-24T16:28:12.650Z,5.60
2018-02-24T16:30:40.172Z,5.60
2018-02-24T16:33:08.453Z,5.50
2018-02-24T16:35:36.763Z,5.50
2018-02-24T16:38:04.306Z,5.50
2018-02-24T16:40:31.843Z,5.40
2018-02-24T16:43:00.127Z,5.30
2018-02-24T16:45:27.667Z,5.30
2018-02-24T16:47:55.204Z,5.30
2018-02-24T16:50:22.723Z,5.30
2018-02-24T16:52:50.267Z,5.20
2018-02-24T16:55:17.780Z,5.20
2018-02-24T16:57:45.301Z,5.10
2018-02-24T17:00:12.856Z,4.90
2018-02-24T17:02:40.359Z,4.80
2018-02-24T17:05:08.666Z,4.70
2018-02-24T17:07:37.000Z,4.50
2018-02-24T17:10:04.515Z,4.50
2018-02-24T17:12:32.077Z,4.60
2018-02-24T17:14:59.657Z,4.40
2018-02-24T17:17:27.164Z,4.40
2018-02-24T17:19:55.452Z,4.40
2018-02-24T17:22:23.024Z,4.40
2018-02-24T17:24:50.526Z,4.30
2018-02-24T17:27:18.845Z,4.30
2018-02-24T17:29:46.348Z,4.20
2018-02-24T17:32:13.881Z,4.10
2018-02-24T17:34:41.389Z,4.10
2018-02-24T17:37:08.916Z,4.10
2018-02-24T17:39:36.421Z,4.10
2018-02-24T17:42:04.733Z,4.00
2018-02-24T17:44:33.210Z,4.00
2018-02-24T17:47:00.768Z,4.00
2018-02-24T17:49:28.303Z,3.80
2018-02-24T17:51:55.804Z,3.90
2018-02-24T17:54:23.354Z,3.80
2018-02-24T17:56:50.882Z,3.70
2018-02-24T17:59:18.454Z,3.70
2018-02-24T18:01:45.969Z,3.70
2018-02-24T18:04:14.265Z,3.80
2018-02-24T18:06:42.577Z,3.80
2018-02-24T18:09:10.132Z,3.80
2018-02-24T18:11:37.660Z,3.80
2018-02-24T18:14:05.173Z,3.70
2018-02-24T18:16:32.710Z,3.60
2018-02-24T18:19:00.209Z,3.50
2018-02-24T18:21:28.529Z,3.30
2018-02-24T18:23:56.104Z,3.20
2018-02-24T18:26:23.657Z,3.30
2018-02-24T18:28:51.184Z,3.30
2018-02-24T18:31:18.738Z,3.30
2018-02-24T18:33:47.015Z,3.10
2018-02-24T18:36:15.312Z,3.10
2018-02-24T18:38:42.868Z,3.10
2018-02-24T18:41:10.364Z,3.10
2018-02-24T18:43:37.893Z,3.00
2018-02-24T18:46:05.404Z,2.90
2018-02-24T18:48:33.751Z,2.90
2018-02-24T18:51:01.256Z,2.90
2018-02-24T18:53:28.761Z,2.90
2018-02-24T18:55:56.318Z,2.70
2018-02-24T18:58:23.828Z,2.60
2018-02-24T19:00:51.369Z,2.50
2018-02-24T19:03:19.641Z,2.40
2018-02-24T19:05:47.974Z,2.30
2018-02-24T19:08:15.475Z,2.40
2018-02-24T19:10:43.805Z,2.40
2018-02-24T19:13:11.323Z,2.40
2018-02-24T19:15:39.620Z,2.30
2018-02-24T19:18:07.158Z,2.30
2018-02-24T19:20:35.440Z,2.10
2018-02-24T19:23:03.012Z,2.10
2018-02-24T19:25:30.543Z,2.10
2018-02-24T19:27:58.861Z,2.00
2018-02-24T19:30:26.385Z,2.00
2018-02-24T19:32:54.687Z,1.90
2018-02-24T19:35:22.219Z,1.90
2018-02-24T19:37:50.550Z,1.90
2018-02-24T19:40:18.051Z,1.90
2018-02-24T19:42:46.354Z,2.00
2018-02-24T19:45:13.927Z,1.90
2018-02-24T19:47:41.450Z,1.90
2018-02-24T19:50:09.720Z,1.90
2018-02-24T19:52:38.027Z,1.80
2018-02-24T19:55:05.606Z,1.70
2018-02-24T19:57:33.143Z,1.70
2018-02-24T20:00:00.645Z,1.70
2018-02-24T20:02:28.205Z,1.60
2018-02-24T20:04:55.706Z,1.50
2018-02-24T20:07:23.243Z,1.50
2018-02-24T20:09:51.532Z,1.50
2018-02-24T20:12:19.060Z,1.50
2018-02-24T20:14:47.358Z,1.50
2018-02-24T20:17:14.874Z,1.50
2018-02-24T20:19:42.414Z,1.40
2018-02-24T20:22:09.919Z,1.30
2018-02-24T20:24:38.260Z,1.40
2018-02-24T20:27:05.768Z,1.40
2018-02-24T20:29:33.317Z,1.40
2018-02-24T20:32:01.629Z,1.20
2018-02-24T20:34:29.132Z,1.20
2018-02-24T20:36:56.667Z,1.20
2018-02-24T20:39:24.164Z,1.20
2018-02-24T20:41:52.479Z,1.10
2018-02-24T20:44:19.991Z,1.10
2018-02-24T20:46:48.282Z,1.00
2018-02-24T20:49:16.606Z,1.10
2018-02-24T20:51:44.116Z,1.00
2018-02-24T20:54:12.424Z,1.20
2018-02-24T20:56:39.945Z,1.20
2018-02-24T20:59:08.234Z,1.20
2018-02-24T21:01:35.753Z,1.20
2018-02-24T21:04:03.282Z,1.10
2018-02-24T21:06:30.802Z,1.10
2018-02-24T21:08:58.332Z,1.00
2018-02-24T21:11:25.878Z,1.00
2018-02-24T21:13:53.369Z,1.00
2018-02-24T21:16:21.669Z,1.00
2018-02-24T21:18:49.213Z,1.00
2018-02-24T21:21:16.732Z,1.00
2018-02-24T21:23:44.296Z,0.80
2018-02-24T21:26:11.851Z,0.70
2018-02-24T21:28:39.349Z,0.70
2018-02-24T21:31:06.898Z,0.70
2018-02-24T21:33:35.210Z,0.60
2018-02-24T21:36:02.771Z,0.60
2018-02-24T21:38:30.312Z,0.50
2018-02-24T21:40:57.811Z,0.50
2018-02-24T21:43:25.363Z,0.60
2018-02-24T21:45:52.869Z,0.60
2018-02-24T21:48:20.433Z,0.50
2018-02-24T21:50:47.953Z,0.40
2018-02-24T21:53:15.476Z,0.50
2018-02-24T21:55:43.022Z,0.50
2018-02-24T21:58:10.539Z,0.60
2018-02-24T22:00:38.860Z,0.50
2018-02-24T22:03:06.379Z,0.50
2018-02-24T22:05:34.699Z,0.30
2018-02-24T22:08:02.216Z,0.30
2018-02-24T22:10:30.532Z,0.20
2018-02-24T22:12:58.044Z,0.20
2018-02-24T22:15:26.332Z,0.10
2018-02-24T22:17:53.874Z,0.10
2018-02-24T22:20:21.388Z,0.10
2018-02-24T22:22:48.921Z,0.20
2018-02-24T22:25:16.445Z,0.20
2018-02-24T22:27:44.762Z,0.00
2018-02-24T22:30:12.280Z,-0.10
2018-02-24T22:32:40.614Z,0.00
2018-02-24T22:35:08.140Z,-0.10
2018-02-24T22:37:35.680Z,-0.10
2018-02-24T22:40:03.228Z,-0.10
2018-02-24T22:42:31.515Z,-0.10
2018-02-24T22:44:59.070Z,-0.20
2018-02-24T22:47:32.350Z,-0.20
2018-02-24T22:50:00.661Z,-0.40
2018-02-24T22:52:28.180Z,-0.40
2018-02-24T22:54:55.728Z,-0.40
2018-02-24T22:57:23.237Z,-0.50
2018-02-24T22:59:50.748Z,-0.50
2018-02-24T23:02:18.293Z,-0.50
2018-02-24T23:04:46.585Z,-0.70
2018-02-24T23:07:14.918Z,-0.70
2018-02-24T23:09:42.437Z,-0.80
2018-02-24T23:12:09.944Z,-0.70
2018-02-24T23:14:37.490Z,-0.80
2018-02-24T23:17:05.052Z,-0.70
2018-02-24T23:19:32.564Z,-0.80
2018-02-24T23:22:00.100Z,-0.70
2018-02-24T23:24:27.632Z,-0.70
2018-02-24T23:26:55.160Z,-0.60
2018-02-24T23:29:23.334Z,-0.70
2018-02-24T23:31:50.857Z,-0.70
2018-02-24T23:34:19.140Z,-0.80
2018-02-24T23:36:47.449Z,-0.80
2018-02-24T23:39:14.975Z,-0.80
2018-02-24T23:41:43.268Z,-0.90
2018-02-24T23:44:10.781Z,-0.90
2018-02-24T23:46:38.352Z,-0.90
2018-02-24T23:49:05.916Z,-0.80
2018-02-24T23:51:34.508Z,-1.00
2018-02-24T23:54:02.790Z,-1.10
2018-02-24T23:56:30.321Z,-1.10
2018-02-24T23:58:57.868Z,-1.10
